Time;durP1;ratioP1;P1;durP2;ratioP2;P2;SDS_P1;SDS_P2;PMS_P1;PMS_P2;Temp;Humidity;BMP_temperature;BMP_pressure;BME280_temperature;BME280_humidity;BME280_pressure;Samples;Min_cycle;Max_cycle;Signal;HPM_P1;HPM_P2
2023/11/04 00:00:57;;;;;;;16.50;9.98;;;307.60;2304.00;;;;;;5078882;28;20122;-76
2023/11/04 00:03:22;;;;;;;19.25;11.77;;;307.70;2304.00;;;;;;5084938;28;20071;-76
2023/11/04 00:05:48;;;;;;;21.15;12.98;;;307.90;2304.00;;;;;;5069082;28;20032;-76
2023/11/04 00:08:14;;;;;;;20.85;14.73;;;308.00;2304.00;;;;;;5084807;28;20020;-78
2023/11/04 00:10:40;;;;;;;23.50;14.23;;;308.10;2304.00;;;;;;5062361;28;20413;-76
2023/11/04 00:13:06;;;;;;;22.00;15.10;;;332.80;2329.60;;;;;;5061335;28;20102;-75
2023/11/04 00:15:32;;;;;;;23.42;15.73;;;332.90;2329.60;;;;;;5083883;28;20040;-76
2023/11/04 00:17:58;;;;;;;20.45;14.55;;;332.90;2329.60;;;;;;5068736;28;20016;-75
2023/11/04 00:20:26;;;;;;;22.10;14.63;;;332.90;2329.60;;;;;;5077025;28;20100;-75
2023/11/04 00:22:52;;;;;;;22.65;13.60;;;332.90;2329.60;;;;;;5077301;28;20107;-76
2023/11/04 00:25:18;;;;;;;20.98;12.52;;;308.10;2176.00;;;;;;5082447;28;20032;-76
2023/11/04 00:27:44;;;;;;;17.10;12.02;;;332.90;2073.60;;;;;;5083644;28;20438;-76
2023/11/04 00:30:10;;;;;;;18.85;11.77;;;332.90;2329.60;;;;;;5090188;28;20028;-75
2023/11/04 00:32:36;;;;;;;16.35;11.25;;;332.80;2329.60;;;;;;5083592;28;20478;-75
2023/11/04 00:35:04;;;;;;;19.48;11.85;;;308.10;2304.00;;;;;;5085592;28;20051;-76
2023/11/04 00:37:31;;;;;;;20.95;11.13;;;308.10;2304.00;;;;;;5079427;28;20497;-76
2023/11/04 00:39:56;;;;;;;21.00;11.68;;;332.80;2329.60;;;;;;5079466;28;20044;-76
2023/11/04 00:42:22;;;;;;;14.32;10.73;;;332.80;2329.60;;;;;;5083682;28;20044;-76
2023/11/04 00:44:48;;;;;;;18.60;12.38;;;308.10;2304.00;;;;;;5083671;28;20081;-75
2023/11/04 00:47:14;;;;;;;23.27;14.55;;;332.80;2329.60;;;;;;5095739;28;20133;-75
2023/11/04 00:49:39;;;;;;;26.52;16.15;;;308.10;2124.80;;;;;;5086261;28;20024;-75
2023/11/04 00:52:05;;;;;;;24.00;16.25;;;332.80;2329.60;;;;;;5082117;28;20036;-76
2023/11/04 00:54:31;;;;;;;22.98;15.70;;;332.80;2329.60;;;;;;5083403;28;20598;-76
2023/11/04 00:56:57;;;;;;;26.58;16.05;;;332.80;2124.80;;;;;;5082292;28;20040;-76
2023/11/04 00:59:23;;;;;;;23.85;16.88;;;308.10;1945.60;;;;;;5081862;28;20855;-75
2023/11/04 01:01:48;;;;;;;29.92;15.13;;;308.10;2124.80;;;;;;5086372;28;20029;-76
2023/11/04 01:04:14;;;;;;;22.85;15.70;;;308.10;2150.40;;;;;;5081973;28;20077;-76
2023/11/04 01:06:40;;;;;;;22.52;13.77;;;308.00;2304.00;;;;;;5085153;28;20556;-77
2023/11/04 01:09:06;;;;;;;28.50;13.50;;;308.10;2304.00;;;;;;5092265;28;20036;-76
2023/11/04 01:11:31;;;;;;;21.10;12.13;;;308.00;2227.20;;;;;;5093909;28;20408;-75
2023/11/04 01:13:58;;;;;;;19.40;11.68;;;307.90;2227.20;;;;;;5093860;28;20020;-75
2023/11/04 01:16:24;;;;;;;16.85;10.57;;;307.90;2304.00;;;;;;5092658;28;20055;-75
2023/11/04 01:18:50;;;;;;;16.55;10.77;;;307.90;2304.00;;;;;;5094067;28;20085;-75
2023/11/04 01:21:16;;;;;;;18.52;11.88;;;307.90;2304.00;;;;;;5093670;28;20095;-77
2023/11/04 01:23:42;;;;;;;15.23;9.07;;;307.90;2304.00;;;;;;5093816;28;20047;-75
2023/11/04 01:26:08;;;;;;;13.82;8.38;;;307.80;2304.00;;;;;;5092564;28;20434;-75
2023/11/04 01:28:34;;;;;;;10.82;7.50;;;307.70;2304.00;;;;;;5093782;28;20106;-76
2023/11/04 01:30:59;;;;;;;13.32;8.32;;;307.60;2304.00;;;;;;5096821;28;20027;-75
2023/11/04 01:33:28;;;;;;;10.02;7.00;;;307.60;2304.00;;;;;;5103716;28;20035;-76
2023/11/04 01:35:53;;;;;;;13.70;7.55;;;307.50;2304.00;;;;;;5096974;28;20047;-77
2023/11/04 01:38:19;;;;;;;13.45;7.22;;;307.60;2304.00;;;;;;5101858;28;20477;-75
2023/11/04 01:40:51;;;;;;;13.52;7.47;;;307.60;2304.00;;;;;;5106758;28;20465;-75
2023/11/04 01:43:29;;;;;;;11.07;6.60;;;307.60;2304.00;;;;;;5091608;28;20036;-76
2023/11/04 01:46:11;;;;;;;14.38;7.95;;;307.60;2304.00;;;;;;5093693;28;20362;-76
2023/11/04 01:48:39;;;;;;;16.23;8.68;;;307.60;2304.00;;;;;;5113040;28;20047;-75
2023/11/04 01:51:06;;;;;;;15.77;7.50;;;307.60;2304.00;;;;;;5096168;28;20066;-75
2023/11/04 01:53:33;;;;;;;13.52;8.13;;;307.60;2304.00;;;;;;5093399;28;20047;-75
2023/11/04 01:56:00;;;;;;;16.77;9.40;;;307.70;2304.00;;;;;;5091698;28;20433;-76
2023/11/04 01:58:28;;;;;;;14.80;9.27;;;307.80;2304.00;;;;;;5103757;28;20028;-75
2023/11/04 02:00:54;;;;;;;11.75;8.15;;;307.80;2304.00;;;;;;5109020;28;20454;-75
2023/11/04 02:03:20;;;;;;;15.70;9.32;;;307.80;2304.00;;;;;;5093343;28;20039;-76
2023/11/04 02:05:46;;;;;;;19.80;9.82;;;307.90;2304.00;;;;;;5111040;28;20465;-76
2023/11/04 02:08:12;;;;;;;16.45;10.70;;;308.00;2304.00;;;;;;5113475;28;20020;-75
2023/11/04 02:10:38;;;;;;;17.95;11.90;;;308.00;2304.00;;;;;;5094807;28;20071;-75
2023/11/04 02:13:05;;;;;;;21.42;12.95;;;308.10;2304.00;;;;;;5093054;28;20024;-75
2023/11/04 02:15:31;;;;;;;22.52;13.40;;;308.10;2304.00;;;;;;5079402;28;20082;-76
2023/11/04 02:17:56;;;;;;;23.77;14.65;;;308.10;2304.00;;;;;;5112901;28;20419;-75
2023/11/04 02:20:24;;;;;;;21.40;14.18;;;332.80;2329.60;;;;;;5094641;28;20351;-75
2023/11/04 02:22:50;;;;;;;24.88;15.25;;;332.80;2329.60;;;;;;5104494;28;20023;-75
2023/11/04 02:25:17;;;;;;;22.95;14.70;;;332.80;2329.60;;;;;;5071714;28;20120;-75
2023/11/04 02:27:43;;;;;;;24.23;14.00;;;332.80;2329.60;;;;;;5095698;28;20022;-75
2023/11/04 02:30:13;;;;;;;22.15;14.13;;;332.80;2329.60;;;;;;5108331;28;20024;-75
2023/11/04 02:32:38;;;;;;;20.50;13.95;;;332.80;2329.60;;;;;;5092761;28;20074;-74
2023/11/04 02:35:05;;;;;;;21.27;13.50;;;307.80;2304.00;;;;;;5097795;28;20031;-75
2023/11/04 02:37:31;;;;;;;23.13;14.95;;;332.80;2329.60;;;;;;5089012;28;20103;-75
2023/11/04 02:39:57;;;;;;;23.55;14.98;;;332.80;2329.60;;;;;;5077447;28;20016;-75
2023/11/04 02:42:23;;;;;;;21.30;15.02;;;332.80;2329.60;;;;;;5086604;28;20097;-75
2023/11/04 02:44:49;;;;;;;23.67;15.20;;;332.80;2329.60;;;;;;5107508;28;20481;-75
2023/11/04 02:47:14;;;;;;;29.13;17.15;;;332.80;2329.60;;;;;;5085933;28;20027;-75
2023/11/04 02:49:40;;;;;;;26.40;17.98;;;332.80;2329.60;;;;;;5062234;28;20024;-75
2023/11/04 02:52:06;;;;;;;34.67;22.33;;;332.90;2329.60;;;;;;5092553;28;20027;-75
2023/11/04 02:54:32;;;;;;;32.05;22.52;;;332.90;2329.60;;;;;;5083582;28;20023;-75
2023/11/04 02:56:57;;;;;;;36.35;25.45;;;332.90;2329.60;;;;;;5112717;28;20027;-75
2023/11/04 02:59:26;;;;;;;39.22;26.40;;;332.90;2329.60;;;;;;5093825;28;20034;-75
2023/11/04 03:01:52;;;;;;;35.72;25.52;;;333.10;2329.60;;;;;;5116750;28;20016;-75
2023/11/04 03:04:17;;;;;;;40.72;26.85;;;333.10;2329.60;;;;;;5103053;28;20111;-75
2023/11/04 03:06:43;;;;;;;41.13;26.17;;;333.10;2329.60;;;;;;5103951;28;20027;-75
2023/11/04 03:09:09;;;;;;;42.55;26.95;;;333.10;2329.60;;;;;;5096055;28;20024;-75
2023/11/04 03:11:34;;;;;;;40.35;26.60;;;333.10;2329.60;;;;;;5096009;28;20401;-75
2023/11/04 03:14:00;;;;;;;39.95;26.15;;;333.20;2329.60;;;;;;5109456;28;20028;-75
2023/11/04 03:16:27;;;;;;;39.83;28.33;;;333.30;2329.60;;;;;;5107903;28;20062;-75
2023/11/04 03:18:52;;;;;;;39.45;28.08;;;333.30;2329.60;;;;;;5092458;28;20012;-74
2023/11/04 03:21:18;;;;;;;46.13;30.60;;;333.40;2329.60;;;;;;5075760;28;20020;-75
2023/11/04 03:23:45;;;;;;;42.45;29.25;;;333.30;2329.60;;;;;;5076258;28;20535;-75
2023/11/04 03:26:12;;;;;;;43.13;28.77;;;333.20;2329.60;;;;;;5108373;28;20405;-75
2023/11/04 03:28:38;;;;;;;42.25;30.02;;;333.30;2329.60;;;;;;5115932;28;20020;-75
2023/11/04 03:31:04;;;;;;;44.70;28.80;;;333.40;2329.60;;;;;;5091480;28;20035;-75
2023/11/04 03:33:30;;;;;;;41.72;28.92;;;333.10;2329.60;;;;;;5092461;28;20033;-75
2023/11/04 03:35:56;;;;;;;41.90;28.83;;;333.10;2329.60;;;;;;5095592;28;20500;-75
2023/11/04 03:38:22;;;;;;;35.80;25.67;;;333.20;2329.60;;;;;;5095061;28;20020;-75
2023/11/04 03:40:47;;;;;;;41.10;28.33;;;333.10;2329.60;;;;;;5107568;28;20035;-75
2023/11/04 03:43:13;;;;;;;42.03;27.85;;;333.10;2329.60;;;;;;5101899;28;20047;-75
2023/11/04 03:45:39;;;;;;;42.10;28.73;;;333.00;2329.60;;;;;;5116035;28;20031;-75
2023/11/04 03:48:05;;;;;;;47.22;30.88;;;332.90;2329.60;;;;;;5088256;28;20015;-75
2023/11/04 03:50:30;;;;;;;48.10;30.77;;;332.90;2329.60;;;;;;5103835;28;20063;-74
2023/11/04 03:52:56;;;;;;;49.38;30.83;;;332.90;2329.60;;;;;;5100310;28;20366;-75
2023/11/04 03:55:22;;;;;;;46.72;31.25;;;332.90;2329.60;;;;;;5103477;28;20123;-75
2023/11/04 03:57:48;;;;;;;44.97;30.00;;;332.90;2329.60;;;;;;5100256;28;20023;-75
2023/11/04 04:00:14;;;;;;;53.90;34.83;;;333.10;2329.60;;;;;;5114418;28;20531;-74
2023/11/04 04:02:40;;;;;;;50.72;34.25;;;333.10;2329.60;;;;;;5101949;28;20532;-76
2023/11/04 04:05:07;;;;;;;55.47;35.72;;;333.10;2329.60;;;;;;5102970;28;20485;-75
2023/11/04 04:07:33;;;;;;;57.08;37.55;;;333.10;2329.60;;;;;;5107226;28;20028;-75
2023/11/04 04:09:59;;;;;;;54.25;35.70;;;333.00;2329.60;;;;;;5106319;28;20389;-75
2023/11/04 04:12:25;;;;;;;53.78;35.28;;;333.00;2329.60;;;;;;5114233;28;20028;-74
2023/11/04 04:14:51;;;;;;;50.35;31.30;;;332.90;2329.60;;;;;;5115402;28;20443;-75
2023/11/04 04:17:17;;;;;;;50.70;29.95;;;332.90;2329.60;;;;;;5093638;28;20020;-75
2023/11/04 04:19:43;;;;;;;37.65;24.80;;;332.90;2329.60;;;;;;5092797;28;20413;-75
2023/11/04 04:22:09;;;;;;;35.35;23.50;;;332.90;2329.60;;;;;;5100409;28;20500;-75
2023/11/04 04:24:38;;;;;;;36.60;22.98;;;332.90;2329.60;;;;;;5102311;28;20020;-75
2023/11/04 04:27:04;;;;;;;33.47;20.63;;;332.90;2329.60;;;;;;5107968;28;20098;-75
2023/11/04 04:29:31;;;;;;;34.38;20.77;;;333.00;2329.60;;;;;;5107934;28;20508;-77
2023/11/04 04:31:57;;;;;;;32.40;19.83;;;333.00;2329.60;;;;;;5114041;28;20035;-77
2023/11/04 04:34:22;;;;;;;36.95;20.00;;;333.10;2329.60;;;;;;5087366;28;20020;-76
2023/11/04 04:36:48;;;;;;;31.73;19.35;;;333.20;2329.60;;;;;;5100324;28;20031;-77
2023/11/04 04:39:14;;;;;;;31.95;19.92;;;333.30;2329.60;;;;;;5113044;28;20500;-76
2023/11/04 04:41:40;;;;;;;32.53;20.33;;;333.30;2124.80;;;;;;5107820;28;20447;-77
2023/11/04 04:44:06;;;;;;;32.08;19.83;;;333.40;2329.60;;;;;;5108198;28;20423;-76
2023/11/04 04:46:34;;;;;;;39.67;19.23;;;333.40;2329.60;;;;;;5099621;28;20031;-77
2023/11/04 04:49:00;;;;;;;28.13;18.67;;;333.40;2329.60;;;;;;5113284;28;20366;-77
2023/11/04 04:51:25;;;;;;;28.55;18.90;;;333.40;2329.60;;;;;;5099373;28;20019;-76
2023/11/04 04:53:51;;;;;;;29.27;18.25;;;333.30;2329.60;;;;;;5113046;28;20028;-77
2023/11/04 04:56:17;;;;;;;29.38;19.02;;;333.30;2329.60;;;;;;5081308;28;20036;-78
2023/11/04 04:58:43;;;;;;;30.45;18.98;;;333.30;2329.60;;;;;;5107225;28;20020;-78
2023/11/04 05:01:18;;;;;;;31.40;18.48;;;333.30;2329.60;;;;;;5094833;28;20024;-79
2023/11/04 05:03:44;;;;;;;29.02;19.63;;;333.00;2329.60;;;;;;5092754;28;20462;-76
2023/11/04 05:06:10;;;;;;;30.83;20.33;;;333.30;2329.60;;;;;;5092346;28;20063;-76
2023/11/04 05:08:36;;;;;;;22.10;15.38;;;333.30;2329.60;;;;;;5093855;28;20086;-76
2023/11/04 05:11:01;;;;;;;26.30;15.07;;;333.30;2329.60;;;;;;5092769;28;20127;-76
2023/11/04 05:13:28;;;;;;;22.35;13.70;;;333.30;2329.60;;;;;;5107328;28;20055;-76
2023/11/04 05:15:54;;;;;;;20.65;11.70;;;333.30;2329.60;;;;;;5093603;28;20024;-76
2023/11/04 05:18:20;;;;;;;17.75;9.70;;;333.30;2176.00;;;;;;5079981;28;20021;-78
2023/11/04 05:20:46;;;;;;;18.15;8.73;;;333.20;2329.60;;;;;;5114436;28;20081;-77
2023/11/04 05:23:12;;;;;;;14.13;9.65;;;333.20;2329.60;;;;;;5113682;28;20030;-77
2023/11/04 05:25:39;;;;;;;15.98;9.32;;;333.20;2329.60;;;;;;5098361;28;20017;-77
2023/11/04 05:28:05;;;;;;;13.07;8.23;;;333.20;2329.60;;;;;;5085552;28;20036;-77
2023/11/04 05:30:34;;;;;;;17.08;9.43;;;333.20;2329.60;;;;;;5093924;28;20466;-78
2023/11/04 05:33:00;;;;;;;14.52;8.90;;;333.10;2329.60;;;;;;5079920;28;20023;-76
2023/11/04 05:35:27;;;;;;;18.13;10.73;;;333.10;2329.60;;;;;;5091731;28;20040;-77
2023/11/04 05:37:52;;;;;;;17.40;10.52;;;333.00;2329.60;;;;;;5107101;28;20042;-78
2023/11/04 05:40:18;;;;;;;19.30;11.30;;;332.90;2329.60;;;;;;5092508;28;20485;-76
2023/11/04 05:42:45;;;;;;;20.75;11.95;;;332.90;2329.60;;;;;;5093011;28;20075;-77
2023/11/04 05:45:14;;;;;;;18.92;12.75;;;332.90;2329.60;;;;;;5102084;28;20035;-78
2023/11/04 05:47:41;;;;;;;21.65;12.52;;;332.90;2329.60;;;;;;5113522;28;20103;-78
2023/11/04 05:50:07;;;;;;;23.13;13.43;;;332.80;2329.60;;;;;;5104599;28;20035;-77
2023/11/04 05:52:33;;;;;;;19.27;13.05;;;332.90;2329.60;;;;;;5092437;28;20028;-77
2023/11/04 05:54:58;;;;;;;20.02;13.60;;;332.80;2329.60;;;;;;5093421;28;20028;-76
2023/11/04 05:57:24;;;;;;;23.02;14.55;;;332.80;2329.60;;;;;;5093500;28;20038;-76
2023/11/04 05:59:50;;;;;;;19.00;14.07;;;308.10;2304.00;;;;;;5075179;28;20468;-77
2023/11/04 06:02:16;;;;;;;25.42;15.68;;;308.10;2304.00;;;;;;5063785;28;20032;-75
2023/11/04 06:04:42;;;;;;;25.30;16.45;;;308.10;2304.00;;;;;;5065367;28;20381;-77
2023/11/04 06:07:08;;;;;;;26.90;17.63;;;308.00;2304.00;;;;;;5079032;28;20035;-77
2023/11/04 06:09:34;;;;;;;30.85;17.75;;;307.70;2022.40;;;;;;5063684;28;20035;-79
2023/11/04 06:12:00;;;;;;;29.80;18.40;;;307.80;2252.80;;;;;;5080330;28;20116;-79
2023/11/04 06:14:28;;;;;;;26.45;17.55;;;307.90;2304.00;;;;;;5086227;28;20060;-79
2023/11/04 06:16:55;;;;;;;32.22;20.58;;;307.90;2304.00;;;;;;5084037;28;20126;-79
2023/11/04 06:19:22;;;;;;;29.85;19.95;;;307.80;2304.00;;;;;;5068387;28;20486;-80
2023/11/04 06:21:47;;;;;;;27.08;19.48;;;307.80;2304.00;;;;;;5076965;28;20052;-76
2023/11/04 06:24:13;;;;;;;28.50;19.15;;;307.80;2304.00;;;;;;5079699;28;20055;-77
2023/11/04 06:26:39;;;;;;;35.25;22.98;;;307.80;2304.00;;;;;;5077453;28;20025;-78
2023/11/04 06:29:05;;;;;;;40.38;26.33;;;307.80;2304.00;;;;;;5064728;28;20033;-77
2023/11/04 06:31:31;;;;;;;46.05;29.45;;;307.80;2304.00;;;;;;5066309;28;20489;-78
2023/11/04 06:33:57;;;;;;;39.38;26.50;;;307.80;2304.00;;;;;;5083156;28;20040;-77
2023/11/04 06:36:23;;;;;;;33.00;22.27;;;307.90;2304.00;;;;;;5090986;28;20043;-77
2023/11/04 06:38:49;;;;;;;33.67;21.98;;;307.90;2304.00;;;;;;5064037;28;20024;-74
2023/11/04 06:41:16;;;;;;;31.23;22.17;;;307.90;2304.00;;;;;;5086067;28;20040;-76
2023/11/04 06:43:46;;;;;;;32.40;21.55;;;308.00;2304.00;;;;;;5086442;28;20052;-76
2023/11/04 06:46:12;;;;;;;29.88;20.63;;;308.00;2304.00;;;;;;5080069;28;20039;-76
2023/11/04 06:48:38;;;;;;;35.30;21.88;;;308.00;2304.00;;;;;;5092038;28;20091;-77
2023/11/04 06:51:04;;;;;;;34.30;21.75;;;308.10;2304.00;;;;;;5087904;28;20139;-77
2023/11/04 06:53:31;;;;;;;29.27;20.48;;;308.10;2252.80;;;;;;5077581;28;20025;-78
2023/11/04 06:55:58;;;;;;;29.77;19.33;;;308.10;2304.00;;;;;;5063421;28;20440;-78
2023/11/04 06:58:30;;;;;;;33.90;21.23;;;308.10;2304.00;;;;;;5087184;28;20078;-76
2023/11/04 07:00:56;;;;;;;30.65;20.52;;;332.80;2329.60;;;;;;5069739;28;20033;-76
2023/11/04 07:03:22;;;;;;;33.08;20.50;;;332.80;2329.60;;;;;;5080577;28;20066;-78
2023/11/04 07:05:48;;;;;;;27.15;17.98;;;332.90;2329.60;;;;;;5059699;28;20024;-76
2023/11/04 07:08:15;;;;;;;28.73;19.15;;;333.00;2329.60;;;;;;5064480;28;20099;-78
2023/11/04 07:10:41;;;;;;;34.08;21.08;;;333.20;2329.60;;;;;;5086112;28;20020;-77
2023/11/04 07:13:11;;;;;;;27.45;19.67;;;333.30;2329.60;;;;;;5081160;28;20082;-78
2023/11/04 07:15:38;;;;;;;27.48;17.13;;;333.30;2329.60;;;;;;5081956;28;20044;-77
2023/11/04 07:18:07;;;;;;;27.92;15.93;;;333.40;2329.60;;;;;;5078359;28;20029;-76
2023/11/04 07:20:37;;;;;;;26.45;16.33;;;333.40;2329.60;;;;;;5085129;28;20028;-75
2023/11/04 07:23:03;;;;;;;23.45;15.43;;;333.30;2329.60;;;;;;5088128;28;20470;-77
2023/11/04 07:25:30;;;;;;;23.88;13.23;;;333.40;2329.60;;;;;;5092152;28;20063;-78
2023/11/04 07:27:58;;;;;;;18.50;12.05;;;333.50;2329.60;;;;;;5081472;28;20055;-77
2023/11/04 07:30:24;;;;;;;17.38;11.20;;;333.50;2329.60;;;;;;5093953;28;20381;-77
2023/11/04 07:32:50;;;;;;;15.30;9.55;;;333.50;2329.60;;;;;;5085227;28;20490;-78
2023/11/04 07:35:16;;;;;;;13.63;8.90;;;333.60;2329.60;;;;;;5078879;28;20044;-75
2023/11/04 07:37:42;;;;;;;13.77;8.50;;;333.60;2329.60;;;;;;5087505;28;20024;-75
2023/11/04 07:40:09;;;;;;;13.98;8.52;;;333.60;2329.60;;;;;;5077689;28;20107;-75
2023/11/04 07:42:35;;;;;;;11.88;8.40;;;333.50;2329.60;;;;;;5078130;28;20513;-75
2023/11/04 07:45:01;;;;;;;13.50;7.45;;;333.60;2329.60;;;;;;5067894;28;20063;-77
2023/11/04 07:47:28;;;;;;;15.60;7.05;;;333.60;2329.60;;;;;;5062728;28;20035;-74
2023/11/04 07:49:54;;;;;;;19.40;7.72;;;333.60;2329.60;;;;;;5071054;28;20020;-76
2023/11/04 07:52:19;;;;;;;11.90;6.90;;;333.60;2329.60;;;;;;5083127;28;20589;-75
2023/11/04 07:54:45;;;;;;;14.68;8.55;;;333.60;2329.60;;;;;;5082854;28;20108;-77
2023/11/04 07:57:11;;;;;;;11.10;6.95;;;333.70;2329.60;;;;;;5065106;28;20490;-76
2023/11/04 07:59:37;;;;;;;14.57;7.82;;;333.60;2329.60;;;;;;5089128;28;20028;-78
2023/11/04 08:02:03;;;;;;;21.38;8.73;;;333.60;2329.60;;;;;;5078565;28;20043;-77
2023/11/04 08:04:29;;;;;;;14.70;7.95;;;333.70;2329.60;;;;;;5081433;28;20016;-74
2023/11/04 08:06:55;;;;;;;13.73;7.40;;;333.70;2329.60;;;;;;5084219;28;20035;-78
2023/11/04 08:09:21;;;;;;;14.65;9.13;;;333.70;2329.60;;;;;;5086291;28;20028;-77
2023/11/04 08:11:47;;;;;;;17.20;8.48;;;358.40;2329.60;;;;;;5082146;28;20036;-76
2023/11/04 08:14:12;;;;;;;12.55;7.53;;;358.40;2329.60;;;;;;5084576;28;20119;-77
2023/11/04 08:16:38;;;;;;;15.00;8.60;;;358.50;2329.60;;;;;;5088683;28;20046;-76
2023/11/04 08:19:08;;;;;;;13.55;7.90;;;358.70;2329.60;;;;;;5067842;28;20021;-77
2023/11/04 08:21:33;;;;;;;10.80;6.70;;;358.90;2329.60;;;;;;5085921;28;20058;-77
2023/11/04 08:23:59;;;;;;;11.48;6.88;;;359.00;2329.60;;;;;;5060931;28;20487;-76
2023/11/04 08:26:26;;;;;;;16.63;10.13;;;359.00;2329.60;;;;;;5084876;28;20074;-76
2023/11/04 08:28:55;;;;;;;12.52;6.80;;;358.90;2329.60;;;;;;5062184;28;20029;-78
2023/11/04 08:31:20;;;;;;;11.90;6.57;;;359.10;2329.60;;;;;;5067273;28;20033;-77
2023/11/04 08:33:48;;;;;;;17.33;6.32;;;359.30;2329.60;;;;;;5063560;28;20028;-79
2023/11/04 08:36:15;;;;;;;13.02;7.15;;;384.00;2329.60;;;;;;5063701;28;20519;-77
2023/11/04 08:38:41;;;;;;;16.77;6.47;;;384.00;2329.60;;;;;;5069844;28;20475;-78
2023/11/04 08:41:07;;;;;;;14.23;6.72;;;384.00;2329.60;;;;;;5084555;28;20024;-76
2023/11/04 08:43:32;;;;;;;11.35;6.90;;;384.10;2329.60;;;;;;5061518;28;20075;-76
2023/11/04 08:45:58;;;;;;;11.43;6.25;;;384.10;2329.60;;;;;;5086117;28;20056;-76
2023/11/04 08:48:24;;;;;;;12.75;7.63;;;384.20;2329.60;;;;;;5065159;28;20104;-81
2023/11/04 08:50:50;;;;;;;14.35;8.23;;;384.20;2329.60;;;;;;5063139;28;20028;-76
2023/11/04 08:53:15;;;;;;;14.57;7.95;;;384.20;2329.60;;;;;;5065587;28;20039;-77
2023/11/04 08:55:41;;;;;;;17.00;5.90;;;384.10;2329.60;;;;;;5081188;28;20054;-75
2023/11/04 08:58:07;;;;;;;10.15;5.90;;;384.10;2329.60;;;;;;5087443;28;20107;-78
2023/11/04 09:00:33;;;;;;;14.98;8.43;;;384.10;2329.60;;;;;;5080391;28;20066;-79
2023/11/04 09:03:01;;;;;;;16.63;7.13;;;384.20;2329.60;;;;;;5061145;28;20493;-80
2023/11/04 09:05:27;;;;;;;14.15;6.72;;;384.20;2329.60;;;;;;5071055;28;20034;-80
2023/11/04 09:07:53;;;;;;;10.93;5.25;;;384.30;2329.60;;;;;;5071172;28;20444;-77
2023/11/04 09:10:19;;;;;;;16.42;6.93;;;384.80;2329.60;;;;;;5080913;28;20041;-78
2023/11/04 09:12:46;;;;;;;16.13;5.90;;;384.40;2329.60;;;;;;5061885;28;20371;-78
2023/11/04 09:15:11;;;;;;;10.13;5.43;;;384.30;2329.60;;;;;;5088062;28;20048;-74
2023/11/04 09:17:38;;;;;;;12.10;5.28;;;384.30;2329.60;;;;;;5066919;28;20024;-77
2023/11/04 09:20:07;;;;;;;8.73;4.85;;;384.30;2329.60;;;;;;5083816;28;20051;-77
2023/11/04 09:22:33;;;;;;;13.15;6.13;;;384.40;2329.60;;;;;;5079475;28;20024;-79
2023/11/04 09:24:59;;;;;;;13.43;5.07;;;384.50;2329.60;;;;;;5083602;28;20428;-79
2023/11/04 09:27:24;;;;;;;16.23;9.00;;;384.70;2329.60;;;;;;5085977;28;20032;-79
2023/11/04 09:29:50;;;;;;;12.40;5.65;;;384.90;2329.60;;;;;;5064993;28;20114;-79
2023/11/04 09:32:17;;;;;;;16.33;5.35;;;409.60;2355.20;;;;;;5073019;28;20449;-77
2023/11/04 09:34:43;;;;;;;10.88;4.50;;;409.80;2355.20;;;;;;5064547;28;20029;-77
2023/11/04 09:37:11;;;;;;;12.70;5.10;;;410.00;2355.20;;;;;;5083758;28;20039;-77
2023/11/04 09:39:36;;;;;;;6.55;3.88;;;410.30;2355.20;;;;;;5078833;28;20028;-78
2023/11/04 09:42:08;;;;;;;13.85;4.30;;;410.40;2355.20;;;;;;5070600;28;20107;-76
2023/11/04 09:44:34;;;;;;;10.88;4.80;;;410.50;2355.20;;;;;;5059678;28;20107;-77
2023/11/04 09:47:00;;;;;;;9.30;3.90;;;435.20;2355.20;;;;;;5045601;28;20423;-75
2023/11/04 09:49:27;;;;;;;9.95;4.60;;;435.20;2355.20;;;;;;5067721;28;20212;-77
2023/11/04 09:51:56;;;;;;;8.48;3.80;;;435.20;2355.20;;;;;;5042442;28;20044;-78
2023/11/04 09:54:22;;;;;;;7.40;3.17;;;435.20;2355.20;;;;;;5063888;28;20103;-73
2023/11/04 09:56:48;;;;;;;9.02;3.85;;;435.20;2355.20;;;;;;5062076;28;20413;-78
2023/11/04 09:59:14;;;;;;;8.10;3.65;;;435.30;2355.20;;;;;;5063512;28;20051;-75
2023/11/04 10:01:40;;;;;;;8.90;3.38;;;435.30;2355.20;;;;;;5062126;28;20474;-79
2023/11/04 10:04:07;;;;;;;6.45;3.53;;;435.60;2355.20;;;;;;5055737;28;20025;-78
2023/11/04 10:06:32;;;;;;;8.43;3.63;;;435.70;2355.20;;;;;;5059949;28;20067;-77
2023/11/04 10:09:00;;;;;;;11.57;3.28;;;435.60;2355.20;;;;;;5062990;28;20029;-78
2023/11/04 10:11:28;;;;;;;6.95;3.00;;;435.80;2355.20;;;;;;5065442;28;20070;-75
2023/11/04 10:13:54;;;;;;;8.35;3.35;;;435.80;2355.20;;;;;;5070585;28;20489;-77
2023/11/04 10:16:22;;;;;;;10.45;3.40;;;435.90;2355.20;;;;;;5066507;28;20033;-77
2023/11/04 10:18:49;;;;;;;7.07;3.58;;;460.80;2380.80;;;;;;5042875;28;20021;-79
2023/11/04 10:21:18;;;;;;;11.50;4.57;;;461.00;2380.80;;;;;;5064285;28;20071;-76
2023/11/04 10:23:44;;;;;;;8.40;3.88;;;461.00;2380.80;;;;;;5058313;28;20095;-78
2023/11/04 10:26:10;;;;;;;9.05;3.97;;;460.80;2380.80;;;;;;5063295;28;20463;-78
2023/11/04 10:28:35;;;;;;;11.82;4.68;;;436.10;2355.20;;;;;;5051006;28;20035;-78
2023/11/04 10:31:04;;;;;;;13.85;3.88;;;460.80;2380.80;;;;;;5051275;28;20025;-78
2023/11/04 10:33:35;;;;;;;6.95;4.05;;;436.00;2355.20;;;;;;5061305;28;20025;-79
2023/11/04 10:36:07;;;;;;;12.07;4.30;;;436.00;2355.20;;;;;;5063413;28;20564;-81
2023/11/04 10:38:38;;;;;;;9.38;3.53;;;436.00;2355.20;;;;;;5045982;28;20052;-77
2023/11/04 10:41:06;;;;;;;9.38;3.70;;;436.00;2355.20;;;;;;5059808;28;20032;-75
2023/11/04 10:44:05;;;;;;;8.68;3.30;;;460.80;2380.80;;;;;;5061080;28;20383;-78
2023/11/04 10:46:42;;;;;;;7.07;3.70;;;460.80;2380.80;;;;;;5086361;28;20029;-79
2023/11/04 10:49:31;;;;;;;14.80;5.20;;;460.80;2380.80;;;;;;5063690;28;20389;-77
2023/11/04 10:52:05;;;;;;;10.38;4.53;;;436.10;2355.20;;;;;;5079984;28;20020;-77
2023/11/04 10:54:44;;;;;;;9.63;4.00;;;436.00;2355.20;;;;;;5075812;28;20142;-79
2023/11/04 10:57:33;;;;;;;8.95;4.80;;;435.90;2355.20;;;;;;5061923;28;20033;-80
2023/11/04 11:00:09;;;;;;;9.13;3.95;;;435.90;2355.20;;;;;;5063518;28;20028;-82
2023/11/04 11:02:37;;;;;;;;;;;436.10;2355.20;;;;;;5069412;28;20158;-79
2023/11/04 11:05:04;;;;;;;12.52;5.47;;;460.80;2380.80;;;;;;5068667;28;19908;-80
2023/11/04 11:07:30;;;;;;;10.00;4.13;;;460.80;2380.80;;;;;;5062078;28;20047;-80
2023/11/04 11:09:57;;;;;;;11.35;3.72;;;461.20;2380.80;;;;;;5059999;28;20024;-84
2023/11/04 11:12:24;;;;;;;8.35;4.82;;;486.40;2380.80;;;;;;5067400;28;20032;-80
2023/11/04 11:14:51;;;;;;;11.75;5.70;;;486.70;2380.80;;;;;;5068275;28;20032;-82
2023/11/04 11:17:17;;;;;;;13.65;5.00;;;486.70;2380.80;;;;;;5074261;28;20032;-80
2023/11/04 11:19:47;;;;;;;11.40;4.22;;;487.00;2380.80;;;;;;5076760;28;20111;-82
2023/11/04 11:22:23;;;;;;;12.95;4.50;;;487.20;2380.80;;;;;;5074764;28;20056;-81
2023/11/04 11:24:53;;;;;;;10.52;3.85;;;486.80;2380.80;;;;;;5086644;28;20024;-82
2023/11/04 11:27:20;;;;;;;18.30;7.47;;;486.80;2380.80;;;;;;5086467;28;20107;-80
2023/11/04 11:29:47;;;;;;;8.25;4.20;;;487.20;2380.80;;;;;;5078748;28;20056;-80
2023/11/04 11:32:13;;;;;;;7.50;3.53;;;487.10;2380.80;;;;;;5072146;28;20025;-80
2023/11/04 11:34:55;;;;;;;6.25;3.70;;;486.80;2380.80;;;;;;5069818;28;20068;-79
2023/11/04 11:37:25;;;;;;;12.25;5.57;;;487.10;2380.80;;;;;;5070451;28;20093;-81
2023/11/04 11:39:51;;;;;;;23.23;10.43;;;487.30;2380.80;;;;;;5066721;28;20040;-79
2023/11/04 11:42:24;;;;;;;13.07;6.50;;;487.30;2380.80;;;;;;5070132;28;20075;-81
2023/11/04 11:44:50;;;;;;;14.88;7.72;;;512.10;2380.80;;;;;;5080160;28;20030;-79
2023/11/04 11:47:18;;;;;;;9.48;4.45;;;512.10;2380.80;;;;;;5065832;28;20116;-79
2023/11/04 11:49:43;;;;;;;6.43;3.97;;;512.10;2380.80;;;;;;5068709;28;20532;-78
2023/11/04 11:52:10;;;;;;;7.97;4.32;;;512.10;2380.80;;;;;;5084069;28;20024;-78
2023/11/04 11:54:39;;;;;;;9.98;4.35;;;512.20;2380.80;;;;;;5083090;28;20016;-79
2023/11/04 11:57:05;;;;;;;9.70;4.13;;;512.30;2380.80;;;;;;5084416;28;20055;-78
2023/11/04 11:59:34;;;;;;;10.68;4.90;;;512.30;2380.80;;;;;;5076636;28;20024;-78
2023/11/04 12:02:00;;;;;;;6.25;3.83;;;512.10;2380.80;;;;;;5070638;28;20032;-79